Portada
METAR-TAF:

METAR-TAF

Aeroports :

Aeroport Internacional Houari Boumedienne

Alger, Algèria

latitud: 36-43N, longitud: 003-15E, altitud: 25 m

Observació

L'informe es va fer fa 13 minuts, a les 14:30 UTC
Vent 3 kt del Oest/Nord-Oest
Temperatura 19°C
Humitat 49%
Pressió 1024 hPa
Visibilitat 10 km o més
Escasses núvols a una alçada de 4000 ft

METAR: DAAG 271430Z 30003KT 9999 FEW040 19/08 Q1024

Hora: 15:43 (14:43 UTC)

Pronòstic

L'informe es va fer fa 3 hores i 43 minuts, a les 11:00 UTC
Pronòstic vàlid del 27 a les 12 UTC al 28 a les 12 UTC
Vent 2 kt amb direcció variable
Visibilitat 10 km o més
Escasses núvols a una alçada de 2600 ft

TAF: DAAG 271100Z 2712/2812 VRB02KT 9999 FEW026

Observacions i pronòstics meteorològics de més de 4000 aeroports (METAR i TAF).

Les estacions disponibles són els punts grocs i vermells al mapa.

Posi el ratolí al punt desitjat per veure el nom de l'estació.

Feu clic per veure les observacions i els pronòstics meteorològics.

Per canviar el mapa: feu clic els botons verds amb una creu de color negre per apropar; al botó verd amb un guió per allunyar la imatge; o en les fletxes verdes per a mapes adjacents.


METAR-TAF: